Wetterstation Vordersexau
Wetterdaten: September 2018
Datum Temp. A. Feuchte A. Luftdruck Regen Wind Richtung Taupunkt Windchill Windben
01.09.2018 16,1 C 68 % 1019,8 hPa 0,5 l/m 0,7 km/h NW 10,0 C 16,0 C 0,4 km/h
02.09.2018 15,4 C 79 % 1017,9 hPa 0,0 l/m 1,6 km/h N-NO 11,6 C 15,0 C 0,9 km/h
03.09.2018 16,3 C 79 % 1014,0 hPa 0,0 l/m 0,0 km/h N 12,6 C 16,3 C 0,0 km/h
04.09.2018 18,0 C 74 % 1013,3 hPa 0,0 l/m 0,0 km/h SO 13,0 C 18,0 C 0,0 km/h
05.09.2018 20,3 C 71 % 1012,9 hPa 0,0 l/m 0,5 km/h SO 14,6 C 20,2 C 0,3 km/h
06.09.2018 19,0 C 74 % 1009,9 hPa 4,1 l/m 2,5 km/h SO 14,2 C 18,7 C 1,4 km/h
07.09.2018 17,9 C 74 % 1013,1 hPa 0,0 l/m 1,0 km/h O-SO 13,0 C 17,7 C 0,6 km/h
08.09.2018 17,4 C 70 % 1017,8 hPa 0,0 l/m 0,2 km/h O 11,5 C 17,4 C 0,1 km/h
09.09.2018 18,4 C 64 % 1018,6 hPa 0,0 l/m 0,8 km/h O-NO 10,6 C 18,4 C 0,5 km/h
10.09.2018 19,8 C 60 % 1020,2 hPa 0,0 l/m 0,0 km/h O-NO 11,1 C 19,8 C 0,0 km/h
11.09.2018 21,2 C 61 % 1021,7 hPa 0,0 l/m 0,0 km/h O-NO 12,7 C 21,2 C 0,0 km/h
12.09.2018 22,0 C 62 % 1018,1 hPa 3,1 l/m 1,5 km/h O-SO 13,5 C 22,0 C 0,8 km/h
13.09.2018 19,6 C 76 % 1015,6 hPa 2,1 l/m 0,9 km/h O-SO 15,1 C 19,4 C 0,5 km/h
14.09.2018 18,3 C 78 % 1017,0 hPa 1,6 l/m 1,0 km/h SO 14,4 C 18,2 C 0,6 km/h
15.09.2018 17,7 C 67 % 1020,9 hPa 0,5 l/m 1,8 km/h O-NO 11,0 C 17,5 C 1,0 km/h
16.09.2018 17,1 C 70 % 1019,1 hPa 0,0 l/m 0,1 km/h O-NO 11,2 C 17,1 C 0,0 km/h
17.09.2018 20,0 C 63 % 1016,6 hPa 0,0 l/m 1,0 km/h O-NO 11,9 C 19,9 C 0,5 km/h
18.09.2018 20,6 C 65 % 1014,3 hPa 0,5 l/m 1,8 km/h O 13,4 C 20,5 C 1,0 km/h
19.09.2018 21,1 C 66 % 1017,0 hPa 0,0 l/m 0,0 km/h O-NO 14,0 C 21,1 C 0,0 km/h
20.09.2018 21,9 C 63 % 1015,8 hPa 0,0 l/m 0,0 km/h O-NO 14,0 C 21,9 C 0,0 km/h
21.09.2018 18,2 C 69 % 1012,3 hPa 2,6 l/m 4,0 km/h O-SO 12,0 C 17,6 C 2,2 km/h
22.09.2018 14,2 C 72 % 1019,9 hPa 0,0 l/m 0,5 km/h O-SO 8,9 C 14,2 C 0,3 km/h
23.09.2018 18,7 C 71 % 1013,7 hPa 14,0 l/m 18,7 km/h SW 13,2 C 15,9 C 10,4 km/h
24.09.2018 12,3 C 66 % 1028,5 hPa 0,0 l/m 0,0 km/h N 5,7 C 12,3 C 0,0 km/h
25.09.2018 11,4 C 61 % 1031,8 hPa 0,0 l/m 0,0 km/h NO 3,5 C 11,4 C 0,0 km/h
26.09.2018 11,4 C 64 % 1030,6 hPa 0,0 l/m 0,0 km/h O-NO 4,4 C 11,4 C 0,0 km/h
27.09.2018 14,6 C 67 % 1025,5 hPa 0,0 l/m 0,0 km/h O-NO 7,9 C 14,6 C 0,0 km/h
28.09.2018 16,0 C 66 % 1019,2 hPa 0,0 l/m 0,0 km/h N 9,2 C 16,0 C 0,0 km/h
29.09.2018 14,6 C 61 % 1019,5 hPa 0,0 l/m 0,0 km/h N-NO 6,9 C 14,6 C 0,0 km/h
30.09.2018 14,0 C 69 % 1014,2 hPa 0,0 l/m 0,0 km/h O-NO 8,1 C 14,0 C 0,0 km/h
Min-Datum 26.09.18 09.09.18 23.09.18 9 Tage 01.09.18 - 26.09.18 26.09.18 01.09.18
Min-Zeit 07:53 17:53 18:53 - 00:53 - 06:53 07:53 00:53
Minimum 2,9 C 27 % 1007,5 hPa - 0,0 km/h - -0,1 C 2,9 C 0,0 km/h
Max-Datum 12.09.18 08.09.18 25.09.18 23.09.18 23.09.18 - 13.09.18 12.09.18 23.09.18
Max-Zeit 17:53 06:53 09:53 20:53 13:53 - 14:53 17:53 13:53
Maximum 35,2 C 84 % 1032,4 hPa 14,0 l/m 53,8 km/h
SW
- 18,0 C 35,2 C 29,9 km/h
SW
Durchschnitt 17,4 C 68 % 1018,3 hPa #29,0 l/m 1,3 km/h O-NO 11,1 C 17,3 C 0,7 km/h

Durchschnitt Minimum Temp.11,3 C
Durchschnitt Maximum Temp.25,7 C
www.sexauwetter.de